Menlo Park, CA

11:01 AM PDT on April 18, 2015 (GMT -0700)
Allied Arts | | Change Station
CLOSE
Current Station
Personal Weather Station
Location: Menlo Park, CA
Elevation: 70 ft
Nearby Weather Stations

Elev 70 ft 37.44 °N, 122.18 °W | Updated 7 seconds ago

Partly Cloudy
Partly Cloudy
64.3 °F
Feels Like 64.3 °F
N
1.0
Wind Variable Wind from NNE
Gusts 3.0 mph

Today
High -- | Low -- °F
--% Chance of Precip.
Yesterday
High -- | Low -- °F
Precip. -- in
6:30 AM 7:46 PM
Waning Crescent, 0% visible
Pressure 30.05 in
Visibility 7.0 miles
Clouds Scattered Clouds 1100 ft
Dew Point 51 °F
Humidity 63%
Rainfall 0.00 in
Snow Depth Not available.
UV 4.3 out of 12
Pollen 8.70 out of 12
Air Quality Not available.
Flu Activity Sporadic
METAR KPAO 181747Z 36008KT 7SM HZ SCT011 16/11 A3005

More Conditions Fewer Conditions

Pressure 30.05 in
Visibility 7.0 miles
Clouds Scattered Clouds 1100 ft
Dew Point 51 °F
Humidity 63%
Rainfall 0.00 in
Snow Depth Not available.
UV 4.3 out of 12
Pollen 8.70 out of 12
Air Quality Not available.
Flu Activity Sporadic
METAR KPAO 181747Z 36008KT 7SM HZ SCT011 16/11 A3005

More Conditions Fewer Conditions

10-Day Weather Forecast

Almanac

Astronomy

Apr. 18, 2015 Rise Set
Actual Time
Civil Twilight
Nautical Twilight
Astronomical Twilight
Moon
Length of Visible Light
Length of Day
Tomorrow will be .
, % of the Moon is Illuminated

Today's Extremes

State Highs State Lows

Community

WunderPhotos

Upload Photos

1,814,472 photos uploaded!

WunderBlogs® & News

Nearby

Air Quality

  Air Quality AQ Index Pollutant
Not available.

Snow Depth

Station Depth Elevation

Earthquake Activity

City Distance Mag. Time & Date
Minimum magnitude displayed is 2.5.

Coastal Water Temperatures

Place Temperature

Stations

Nearby Weather Stations

Station Location Temp. Windchill Dew Point Humidity Wind Precip. Elev Updated Type